createdAt,value
2023-01-17T00:00:08.136Z,19.40
2023-01-17T00:03:01.517Z,19.40
2023-01-17T00:06:11.805Z,19.40
2023-01-17T00:09:25.460Z,19.30
2023-01-17T00:12:20.233Z,19.30
2023-01-17T00:15:14.105Z,19.30
2023-01-17T00:18:07.598Z,19.30
2023-01-17T00:21:17.894Z,19.30
2023-01-17T00:24:28.857Z,19.30
2023-01-17T00:27:22.476Z,19.30
2023-01-17T00:30:14.630Z,19.30
2023-01-17T00:33:06.322Z,19.30
2023-01-17T00:36:00.071Z,19.30
2023-01-17T00:38:52.305Z,19.30
2023-01-17T00:41:44.043Z,19.20
2023-01-17T00:44:56.233Z,19.20
2023-01-17T00:48:06.440Z,19.20
2023-01-17T00:51:16.695Z,19.20
2023-01-17T00:54:27.107Z,19.20
2023-01-17T00:57:37.493Z,19.20
2023-01-17T01:00:48.995Z,19.20
2023-01-17T01:03:59.850Z,19.20
2023-01-17T01:07:10.464Z,19.20
2023-01-17T01:10:20.816Z,19.20
2023-01-17T01:13:32.095Z,19.20
2023-01-17T01:16:43.877Z,19.20
2023-01-17T01:19:54.637Z,19.10
2023-01-17T01:23:04.608Z,19.10
2023-01-17T01:26:14.660Z,19.10
2023-01-17T01:29:24.765Z,19.10
2023-01-17T01:32:37.792Z,19.10
2023-01-17T01:35:31.283Z,19.10
2023-01-17T01:38:25.886Z,19.10
2023-01-17T01:41:19.653Z,19.10
2023-01-17T01:44:44.305Z,19.10
2023-01-17T01:47:40.695Z,19.10
2023-01-17T01:50:36.209Z,19.10
2023-01-17T01:53:29.872Z,19.10
2023-01-17T01:56:24.813Z,19.00
2023-01-17T01:59:21.104Z,19.10
2023-01-17T02:02:14.957Z,19.00
2023-01-17T02:05:11.985Z,19.00
2023-01-17T02:08:08.100Z,19.00
2023-01-17T02:11:01.986Z,19.00
2023-01-17T02:13:55.353Z,19.00
2023-01-17T02:17:01.875Z,19.00
2023-01-17T02:20:44.429Z,19.00
2023-01-17T02:24:22.423Z,19.00
2023-01-17T02:27:27.008Z,19.00
2023-01-17T02:30:34.960Z,18.90
2023-01-17T02:33:34.611Z,18.90
2023-01-17T02:36:32.805Z,18.90
2023-01-17T02:39:33.983Z,18.90
2023-01-17T02:42:32.791Z,18.90
2023-01-17T02:45:25.931Z,18.90
2023-01-17T02:48:25.457Z,18.90
2023-01-17T02:51:43.691Z,18.80
2023-01-17T02:54:51.429Z,18.90
2023-01-17T02:57:59.105Z,18.80
2023-01-17T03:01:03.071Z,18.80
2023-01-17T03:04:03.807Z,18.80
2023-01-17T03:07:01.887Z,18.80
2023-01-17T03:09:59.397Z,18.80
2023-01-17T03:12:58.671Z,18.80
2023-01-17T03:15:51.612Z,18.80
2023-01-17T03:18:44.948Z,18.80
2023-01-17T03:21:40.102Z,18.80
2023-01-17T03:24:33.777Z,18.80
2023-01-17T03:27:26.688Z,18.80
2023-01-17T03:30:21.855Z,18.80
2023-01-17T03:33:17.611Z,18.70
2023-01-17T03:36:11.943Z,18.70
2023-01-17T03:39:07.019Z,18.70
2023-01-17T03:42:00.367Z,18.70
2023-01-17T03:44:53.992Z,18.70
2023-01-17T03:47:47.708Z,18.70
2023-01-17T03:50:44.351Z,18.70
2023-01-17T03:53:37.678Z,18.70
2023-01-17T03:56:32.247Z,18.70
2023-01-17T03:59:25.720Z,18.70
2023-01-17T04:02:18.714Z,18.70
2023-01-17T04:05:11.477Z,18.60
2023-01-17T04:08:06.575Z,18.60
2023-01-17T04:10:59.542Z,18.60
2023-01-17T04:13:54.085Z,18.60
2023-01-17T04:16:47.299Z,18.60
2023-01-17T04:19:41.730Z,18.60
2023-01-17T04:22:34.518Z,18.60
2023-01-17T04:25:29.856Z,18.60
2023-01-17T04:28:22.675Z,18.50
2023-01-17T04:31:18.161Z,18.50
2023-01-17T04:34:11.748Z,18.50
2023-01-17T04:37:04.581Z,18.50
2023-01-17T04:39:57.405Z,18.50
2023-01-17T04:42:51.211Z,18.50
2023-01-17T04:45:44.979Z,18.50
2023-01-17T04:48:40.172Z,18.50
2023-01-17T04:51:33.701Z,18.50
2023-01-17T04:54:26.788Z,18.50
2023-01-17T04:57:20.372Z,18.50
2023-01-17T05:00:14.633Z,18.50
2023-01-17T05:03:07.797Z,18.50
2023-01-17T05:06:02.302Z,18.50
2023-01-17T05:08:55.552Z,18.50
2023-01-17T05:11:48.444Z,18.50
2023-01-17T05:14:41.511Z,18.40
2023-01-17T05:17:34.803Z,18.40
2023-01-17T05:20:27.711Z,18.40
2023-01-17T05:23:21.816Z,18.40
2023-01-17T05:26:15.215Z,18.40
2023-01-17T05:29:08.651Z,18.40
2023-01-17T05:32:01.342Z,18.40
2023-01-17T05:34:54.600Z,18.40
2023-01-17T05:37:49.157Z,18.40
2023-01-17T05:40:44.080Z,18.40
2023-01-17T05:43:37.720Z,18.40
2023-01-17T05:46:30.696Z,18.40
2023-01-17T05:49:23.447Z,18.40
2023-01-17T05:52:16.564Z,18.30
2023-01-17T05:55:10.737Z,18.30
2023-01-17T05:58:05.596Z,18.30
2023-01-17T06:00:58.868Z,18.30
2023-01-17T06:03:51.745Z,18.30
2023-01-17T06:06:44.426Z,18.30
2023-01-17T06:09:37.590Z,18.40
2023-01-17T06:12:30.305Z,18.30
2023-01-17T06:15:24.848Z,18.30
2023-01-17T06:18:18.910Z,18.30
2023-01-17T06:21:11.820Z,18.30
2023-01-17T06:24:04.521Z,18.30
2023-01-17T06:26:57.470Z,18.30
2023-01-17T06:29:50.647Z,18.30
2023-01-17T06:32:45.445Z,18.30
2023-01-17T06:35:40.826Z,18.30
2023-01-17T06:38:33.736Z,18.30
2023-01-17T06:41:26.842Z,18.30
2023-01-17T06:44:19.669Z,18.20
2023-01-17T06:47:12.487Z,18.20
2023-01-17T06:50:08.452Z,18.20
2023-01-17T06:53:03.280Z,18.20
2023-01-17T06:55:57.586Z,18.20
2023-01-17T06:58:51.158Z,18.20
2023-01-17T07:01:44.866Z,18.20
2023-01-17T07:04:37.667Z,18.20
2023-01-17T07:07:33.978Z,18.20
2023-01-17T07:10:26.576Z,18.20
2023-01-17T07:13:19.742Z,18.20
2023-01-17T07:16:13.149Z,18.20
2023-01-17T07:19:06.614Z,18.20
2023-01-17T07:21:59.668Z,18.20
2023-01-17T07:24:58.439Z,18.20
2023-01-17T07:27:54.899Z,18.20
2023-01-17T07:30:47.479Z,18.10
2023-01-17T07:33:40.775Z,18.10
2023-01-17T07:36:33.657Z,18.10
2023-01-17T07:39:27.819Z,18.10
2023-01-17T07:42:23.923Z,18.10
2023-01-17T07:45:18.744Z,18.10
2023-01-17T07:48:12.703Z,18.10
2023-01-17T07:51:05.995Z,18.10
2023-01-17T07:53:58.712Z,18.10
2023-01-17T07:56:51.680Z,18.10
2023-01-17T07:59:46.109Z,18.10
2023-01-17T08:02:40.132Z,18.10
2023-01-17T08:05:33.782Z,18.10
2023-01-17T08:08:26.761Z,18.10
2023-01-17T08:11:19.515Z,18.10
2023-01-17T08:14:12.542Z,18.10
2023-01-17T08:17:07.856Z,18.10
2023-01-17T08:20:00.510Z,18.10
2023-01-17T08:22:56.066Z,18.10
2023-01-17T08:25:49.919Z,18.10
2023-01-17T08:28:42.819Z,18.10
2023-01-17T08:31:36.649Z,18.10
2023-01-17T08:34:31.082Z,18.20
2023-01-17T08:37:25.070Z,18.20
2023-01-17T08:40:19.765Z,18.30
2023-01-17T08:43:12.638Z,18.40
2023-01-17T08:46:06.157Z,18.40
2023-01-17T08:49:02.554Z,18.40
2023-01-17T08:51:57.220Z,18.30
2023-01-17T08:54:53.297Z,18.40
2023-01-17T08:57:47.006Z,18.40
2023-01-17T09:00:40.061Z,18.60
2023-01-17T09:03:34.128Z,18.70
2023-01-17T09:06:28.156Z,18.80
2023-01-17T09:09:23.470Z,18.90
2023-01-17T09:12:16.775Z,19.00
2023-01-17T09:15:10.706Z,19.10
2023-01-17T09:18:03.779Z,19.20
2023-01-17T09:20:59.101Z,19.30
2023-01-17T09:23:53.165Z,19.30
2023-01-17T09:26:48.125Z,19.30
2023-01-17T09:29:41.908Z,19.40
2023-01-17T09:32:35.090Z,19.40
2023-01-17T09:35:27.731Z,19.40
2023-01-17T09:38:21.690Z,19.50
2023-01-17T09:41:23.000Z,19.50
2023-01-17T09:44:26.826Z,19.50
2023-01-17T09:47:27.428Z,19.50
2023-01-17T09:50:28.081Z,19.60
2023-01-17T09:53:21.619Z,19.60
2023-01-17T09:56:20.412Z,19.60
2023-01-17T09:59:33.061Z,19.70
2023-01-17T10:02:55.963Z,19.70
2023-01-17T10:06:03.076Z,19.70
2023-01-17T10:09:13.775Z,19.70
2023-01-17T10:12:18.752Z,19.70
2023-01-17T10:15:32.902Z,19.80
2023-01-17T10:18:47.814Z,19.90
2023-01-17T10:22:02.084Z,20.10
2023-01-17T10:25:34.686Z,20.20
2023-01-17T10:28:33.810Z,20.30
2023-01-17T10:31:31.056Z,20.40
2023-01-17T10:34:29.264Z,20.60
2023-01-17T10:37:28.803Z,20.60
2023-01-17T10:40:26.989Z,20.70
2023-01-17T10:43:25.300Z,20.70
2023-01-17T10:46:22.569Z,20.80
2023-01-17T10:49:19.776Z,20.80
2023-01-17T10:52:20.277Z,20.90
2023-01-17T10:55:29.024Z,21.00
2023-01-17T10:58:22.624Z,21.10
2023-01-17T11:01:20.607Z,21.10
2023-01-17T11:04:21.059Z,21.20
2023-01-17T11:07:16.962Z,21.30
2023-01-17T11:10:37.955Z,21.30
2023-01-17T11:13:34.249Z,21.40
2023-01-17T11:16:31.295Z,21.40
2023-01-17T11:19:30.370Z,21.50
2023-01-17T11:22:24.840Z,21.30
2023-01-17T11:25:22.284Z,21.20
2023-01-17T11:28:22.967Z,21.00
2023-01-17T11:31:27.713Z,20.90
2023-01-17T11:34:27.078Z,20.80
2023-01-17T11:37:22.914Z,20.70
2023-01-17T11:40:24.777Z,20.60
2023-01-17T11:43:25.532Z,20.60
2023-01-17T11:46:20.397Z,20.50
2023-01-17T11:49:24.292Z,20.40
2023-01-17T11:52:24.998Z,20.40
2023-01-17T11:55:23.207Z,20.40
2023-01-17T11:58:16.448Z,20.40
2023-01-17T12:01:25.439Z,20.30
2023-01-17T12:04:24.700Z,20.30
2023-01-17T12:07:36.316Z,20.20
2023-01-17T12:10:37.796Z,20.20
2023-01-17T12:14:00.502Z,20.10
2023-01-17T12:17:07.360Z,20.10
2023-01-17T12:20:05.080Z,20.10
2023-01-17T12:23:22.230Z,20.10
2023-01-17T12:26:29.841Z,20.10
2023-01-17T12:29:44.559Z,20.10
2023-01-17T12:32:59.191Z,20.10
2023-01-17T12:35:55.120Z,20.10
2023-01-17T12:38:49.997Z,20.10
2023-01-17T12:41:54.119Z,20.10
2023-01-17T12:44:55.180Z,20.10
2023-01-17T12:47:54.343Z,20.10
2023-01-17T12:50:53.680Z,20.10
2023-01-17T12:53:58.866Z,20.10
2023-01-17T12:56:55.246Z,20.10
2023-01-17T12:59:53.646Z,20.00
2023-01-17T13:02:53.376Z,20.00
2023-01-17T13:05:48.532Z,20.00
2023-01-17T13:08:46.414Z,20.00
2023-01-17T13:11:49.637Z,20.00
2023-01-17T13:14:42.810Z,20.00
2023-01-17T13:17:45.142Z,19.90
2023-01-17T13:20:58.115Z,19.90
2023-01-17T13:24:24.135Z,19.90
2023-01-17T13:27:39.878Z,19.90
2023-01-17T13:30:48.810Z,19.90
2023-01-17T13:34:03.579Z,19.90
2023-01-17T13:37:14.674Z,19.90
2023-01-17T13:40:32.729Z,19.80
2023-01-17T13:43:31.267Z,19.80
2023-01-17T13:46:24.190Z,19.80
2023-01-17T13:49:23.615Z,19.80
2023-01-17T13:52:35.627Z,19.80
2023-01-17T13:55:46.595Z,19.80
2023-01-17T13:58:58.263Z,19.70
2023-01-17T14:01:55.469Z,19.70
2023-01-17T14:05:15.076Z,19.70
2023-01-17T14:08:16.907Z,19.70
2023-01-17T14:11:13.117Z,19.70
2023-01-17T14:14:39.418Z,19.70
2023-01-17T14:17:56.989Z,19.70
2023-01-17T14:21:06.161Z,19.70
2023-01-17T14:24:06.875Z,19.60
2023-01-17T14:27:15.237Z,19.60
2023-01-17T14:30:19.540Z,19.60
2023-01-17T14:33:18.765Z,19.60
2023-01-17T14:36:23.282Z,19.60
2023-01-17T14:39:23.095Z,19.60
2023-01-17T14:42:19.265Z,19.60
2023-01-17T14:45:20.412Z,19.60
2023-01-17T14:48:19.235Z,19.60
2023-01-17T14:51:14.924Z,19.60
2023-01-17T14:54:23.576Z,19.50
2023-01-17T14:57:26.472Z,19.50
2023-01-17T15:00:21.941Z,19.50
2023-01-17T15:03:18.174Z,19.50
2023-01-17T15:06:13.548Z,19.50
2023-01-17T15:09:11.807Z,19.50
2023-01-17T15:12:09.390Z,19.50
2023-01-17T15:15:03.251Z,19.50
2023-01-17T15:18:10.417Z,19.50
2023-01-17T15:21:07.605Z,19.50
2023-01-17T15:24:03.830Z,19.50
2023-01-17T15:26:57.303Z,19.40
2023-01-17T15:29:50.385Z,19.50
2023-01-17T15:32:42.913Z,19.40
2023-01-17T15:35:35.916Z,19.40
2023-01-17T15:38:38.469Z,19.40
2023-01-17T15:41:34.860Z,19.40
2023-01-17T15:44:46.863Z,19.40
2023-01-17T15:47:40.986Z,19.40
2023-01-17T15:50:39.695Z,19.40
2023-01-17T15:53:36.680Z,19.40
2023-01-17T15:56:32.637Z,19.40
2023-01-17T15:59:35.502Z,19.30
2023-01-17T16:02:33.667Z,19.30
2023-01-17T16:05:34.629Z,19.30
2023-01-17T16:08:38.676Z,19.30
2023-01-17T16:11:32.430Z,19.30
2023-01-17T16:14:26.540Z,19.30
2023-01-17T16:17:20.271Z,19.30
2023-01-17T16:20:20.324Z,19.40
2023-01-17T16:23:13.320Z,19.30
2023-01-17T16:26:10.643Z,19.30
2023-01-17T16:29:04.260Z,19.30
2023-01-17T16:31:57.017Z,19.30
2023-01-17T16:34:50.199Z,19.30
2023-01-17T16:37:43.338Z,19.30
2023-01-17T16:40:41.523Z,19.30
2023-01-17T16:43:36.511Z,19.30
2023-01-17T16:46:31.034Z,19.30
2023-01-17T16:49:24.353Z,19.30
2023-01-17T16:52:17.323Z,19.20
2023-01-17T16:55:13.255Z,19.20
2023-01-17T16:58:06.119Z,19.20
2023-01-17T17:01:00.443Z,19.30
2023-01-17T17:03:54.015Z,19.20
2023-01-17T17:06:47.238Z,19.20
2023-01-17T17:09:40.181Z,19.20
2023-01-17T17:12:33.745Z,19.20
2023-01-17T17:15:27.679Z,19.20
2023-01-17T17:18:22.610Z,19.20
2023-01-17T17:21:16.187Z,19.20
2023-01-17T17:24:12.570Z,19.20
2023-01-17T17:27:05.775Z,19.20
2023-01-17T17:29:59.330Z,19.20
2023-01-17T17:32:52.068Z,19.20
2023-01-17T17:35:47.120Z,19.20
2023-01-17T17:38:50.475Z,19.20
2023-01-17T17:41:45.846Z,19.20
2023-01-17T17:44:39.046Z,19.20
2023-01-17T17:47:32.266Z,19.20
2023-01-17T17:50:25.533Z,19.20
2023-01-17T17:53:21.832Z,19.20
2023-01-17T17:56:15.316Z,19.20
2023-01-17T17:59:09.791Z,19.20
2023-01-17T18:02:03.151Z,19.20
2023-01-17T18:04:56.244Z,19.20
2023-01-17T18:07:50.897Z,19.10
2023-01-17T18:10:47.262Z,19.10
2023-01-17T18:13:40.238Z,19.10
2023-01-17T18:16:35.778Z,19.10
2023-01-17T18:19:29.251Z,19.10
2023-01-17T18:22:22.341Z,19.10
2023-01-17T18:25:15.306Z,19.10
2023-01-17T18:28:09.661Z,19.10
2023-01-17T18:31:07.804Z,19.10
2023-01-17T18:34:04.837Z,19.10
2023-01-17T18:36:58.782Z,19.10
2023-01-17T18:39:52.299Z,19.10
2023-01-17T18:42:45.156Z,19.10
2023-01-17T18:45:39.568Z,19.10
2023-01-17T18:48:33.648Z,19.10
2023-01-17T18:51:29.400Z,19.20
2023-01-17T18:54:22.538Z,19.10
2023-01-17T18:57:15.501Z,19.10
2023-01-17T19:00:09.761Z,19.10
2023-01-17T19:03:06.247Z,19.10
2023-01-17T19:06:01.925Z,19.10
2023-01-17T19:08:55.040Z,19.10
2023-01-17T19:11:48.359Z,19.10
2023-01-17T19:14:41.568Z,19.10
2023-01-17T19:17:35.499Z,19.10
2023-01-17T19:20:29.882Z,19.00
2023-01-17T19:23:23.607Z,19.10
2023-01-17T19:26:17.655Z,19.10
2023-01-17T19:29:12.298Z,19.10
2023-01-17T19:32:07.324Z,19.00
2023-01-17T19:35:00.157Z,19.00
2023-01-17T19:37:55.748Z,19.00
2023-01-17T19:40:49.158Z,19.00
2023-01-17T19:43:43.443Z,19.00
2023-01-17T19:46:37.850Z,19.00
2023-01-17T19:49:32.095Z,19.00
2023-01-17T19:52:26.293Z,19.00
2023-01-17T19:55:25.665Z,19.00
2023-01-17T19:58:19.448Z,19.00
2023-01-17T20:01:14.391Z,19.00
2023-01-17T20:04:07.348Z,19.00
2023-01-17T20:07:00.377Z,19.00
2023-01-17T20:09:53.237Z,19.00
2023-01-17T20:12:47.648Z,19.00
2023-01-17T20:15:41.466Z,19.00
2023-01-17T20:18:35.532Z,19.00
2023-01-17T20:21:30.017Z,19.00
2023-01-17T20:24:23.381Z,19.00
2023-01-17T20:27:17.498Z,18.90
2023-01-17T20:30:20.136Z,19.00
2023-01-17T20:33:14.911Z,18.90
2023-01-17T20:36:11.521Z,18.90
2023-01-17T20:39:09.161Z,19.00
2023-01-17T20:42:02.337Z,18.90
2023-01-17T20:44:55.440Z,19.00
2023-01-17T20:47:49.640Z,18.90
2023-01-17T20:50:42.430Z,18.90
2023-01-17T20:53:35.784Z,18.90
2023-01-17T20:56:34.331Z,19.00
2023-01-17T20:59:27.609Z,19.00
2023-01-17T21:02:20.501Z,18.90
2023-01-17T21:05:16.466Z,18.90
2023-01-17T21:08:09.284Z,18.90
2023-01-17T21:11:02.656Z,18.90
2023-01-17T21:13:57.249Z,18.90
2023-01-17T21:16:51.142Z,18.90
2023-01-17T21:19:44.617Z,18.90
2023-01-17T21:22:38.838Z,18.90
2023-01-17T21:25:32.542Z,18.90
2023-01-17T21:28:27.298Z,18.90
2023-01-17T21:31:23.840Z,18.90
2023-01-17T21:34:17.474Z,18.90
2023-01-17T21:37:10.336Z,18.90
2023-01-17T21:40:05.476Z,18.90
2023-01-17T21:42:58.189Z,18.90
2023-01-17T21:45:52.445Z,18.90
2023-01-17T21:48:45.451Z,18.80
2023-01-17T21:51:56.829Z,18.80
2023-01-17T21:55:07.888Z,18.80
2023-01-17T21:58:20.192Z,18.90
2023-01-17T22:01:18.832Z,18.90
2023-01-17T22:04:13.270Z,18.90
2023-01-17T22:07:06.576Z,18.80
2023-01-17T22:09:59.484Z,18.90
2023-01-17T22:12:53.151Z,18.90
2023-01-17T22:16:01.316Z,18.90
2023-01-17T22:18:54.535Z,19.00
2023-01-17T22:21:47.645Z,19.00
2023-01-17T22:24:41.311Z,19.00
2023-01-17T22:27:34.027Z,18.90
2023-01-17T22:30:27.342Z,18.90
2023-01-17T22:33:22.256Z,18.90
2023-01-17T22:36:16.241Z,18.90
2023-01-17T22:39:10.972Z,18.90
2023-01-17T22:42:04.634Z,18.90
2023-01-17T22:44:57.453Z,18.90
2023-01-17T22:47:50.247Z,18.90
2023-01-17T22:50:44.742Z,18.80
2023-01-17T22:53:42.144Z,18.80
2023-01-17T22:56:35.543Z,18.80
2023-01-17T22:59:28.648Z,18.90
2023-01-17T23:02:21.745Z,18.80
2023-01-17T23:05:15.835Z,18.80
2023-01-17T23:08:10.638Z,18.80
2023-01-17T23:11:20.874Z,18.80
2023-01-17T23:14:17.124Z,18.80
2023-01-17T23:17:27.821Z,18.80
2023-01-17T23:20:21.432Z,18.80
2023-01-17T23:23:15.849Z,18.80
2023-01-17T23:26:09.642Z,18.80
2023-01-17T23:29:01.545Z,18.80
2023-01-17T23:31:54.516Z,18.80
2023-01-17T23:34:48.085Z,18.80
2023-01-17T23:37:58.665Z,18.80
2023-01-17T23:41:07.009Z,18.80
2023-01-17T23:44:00.609Z,18.80
2023-01-17T23:46:53.455Z,18.80
2023-01-17T23:49:48.194Z,18.80
2023-01-17T23:52:41.568Z,18.80
2023-01-17T23:55:36.387Z,18.80
2023-01-17T23:58:30.851Z,18.80
